AirNav   Air Wisconsin pilot careers
 
 1367 users online  

2I3 Rough River State Park Airport
Falls of Rough, Kentucky, USA

GOING TO FALLS OF ROUGH?


FAA INFORMATION EFFECTIVE 19 JULY 2018

Location

FAA Identifier: 2I3
Lat/Long: 37-36-35.3000N / 086-30-25.8000W
37-36.588333N / 086-30.430000W
37.6098056 / -86.5071667
(estimated)
Elevation: 577 ft. / 175.9 m (surveyed)
Variation: 01W (1985)
From city: 3 miles NE of FALLS-OF-ROUGH, KY
Time zone: UTC -5 (UTC -6 during Standard Time)
Zip code: 40119

Airport Operations

Airport use: Open to the public
Activation date: 05/1963
Control tower: no
ARTCC: INDIANAPOLIS CENTER
FSS: LOUISVILLE FLIGHT SERVICE STATION
NOTAMs facility: LOU (NOTAM-D service available)
Attendance: UNATNDD
Wind indicator: lighted
Segmented circle: yes
Lights: ACTVT MIRL RY 2/20; REIL RY 2 & 20 - CTAF. PAPI RY 2 & 20 OPER CONTINUOUSLY.
Beacon: white-green (lighted land airport)
Operates sunset to sunrise.

Airport Communications

CTAF/UNICOM: 122.8
WX AWOS-3PT at JQD (19 nm SW): 132.1 (270-298-7936)

Nearby radio navigation aids

VOR radial/distance  VOR name  Freq  Var
MYSr217/(21.1)MYSTIC VOR108.2001W
FTKr236/31.0FORT KNOX VOR/DME109.6001W
OWBr108/32.3OWENSBORO VOR/DME108.6004W
CCTr070/38.5CENTRAL CITY VORTAC109.8001W
EWOr267/39.5NEW HOPE VOR/DME110.8001E

 
NDB name  Hdg/Dist  Freq  Var  ID
GODMAN233/32.739603WGOI --. --- ..

Airport Services

Parking: tiedowns
Airframe service: NONE
Powerplant service: NONE
Bottled oxygen: NONE
Bulk oxygen: NONE

Runway Information

Runway 2/20

Dimensions: 3200 x 75 ft. / 975 x 23 m
Surface: asphalt, in poor condition
RY 2/20 WIDESPREAD MODERATE CRACKING.
Weight bearing capacity: 
Single wheel: 8.0
Runway edge lights: medium intensity
Runway edge markings: RY 2/20 MARKINGS FADED
RUNWAY 2  RUNWAY 20
Latitude: 37-36.336833N37-36.841000N
Longitude: 086-30.527167W086-30.332667W
Gradient: 0.1%0.1%
Traffic pattern: leftleft
Markings: basic, in poor conditionbasic, in poor condition
Visual slope indicator: 2-light PAPI on left (4.00 degrees glide path)4-light PAPI on left (5.00 degrees glide path)
Runway end identifier lights: yesyes
Obstructions: 24 ft. road, 404 ft. from runway, 76 ft. right of centerline, 8:1 slope to clear28 ft. tree, 569 ft. from runway, 160 ft. left of centerline, 13:1 slope to clear

Airport Ownership and Management from official FAA records

Ownership: Publicly-owned
Owner: KY DEPT OF PARKS
CAPITAL PLAZA TOWER
FRANKFORT, KY 40601
Phone 502-564-2172
Manager: MICHAEL RICKS, PARK MANAGER
450 LODGE ROAD
FALLS OF ROUGH, KY 40119
Phone 270-257-2311

Airport Operational Statistics

Aircraft operations: avg 25/day *
78% transient general aviation
13% local general aviation
7% military
2% air taxi
* for 12-month period ending 21 November 2016

Additional Remarks

TRANSPORTATION TO PARK LODGE AVAIL 270-257-2311.
SOUTH APRON CLSD INDEFLY.

Instrument Procedures

There are no published instrument procedures at 2I3.

Some nearby airports with instrument procedures:

KJQD - Ohio County Airport (19 nm SW)
KTEL - Perry County Municipal Airport (26 nm N)
KY8 - Hancock County Airport-Ron Lewis Field (26 nm NW)
KEKX - Addington Field Airport (28 nm E)
KFTK - Godman Army Airfield (31 nm NE)
 
Loc | Ops | Rwys | IFR | FBO | Links
Com | Nav | Svcs | Stats | Notes


 
Area around 2I3 (Rough River State Park Airport)
 
Road maps at: MapQuest Bing Google
 
Aerial photo
WARNING: Photo may not be current or correct
Aerial photo of 2I3 (Rough River State Park Airport)
Taken in December 2006

Do you have a better or more recent aerial photo of Rough River State Park Airport that you would like to share? If so, please send us your photo.

 
Sectional chart

 
Airport distance calculator
Flying to Rough River State Park Airport? Find the distance to fly.

From to 2I3

Sunrise and sunset
Times for 20-Jul-2018
 Local
(UTC-5)
 Zulu
(UTC)
Morning civil twilight05:1110:11
Sunrise05:4110:41
Sunset20:0301:03
Evening civil twilight20:3301:33

Current date and time
Zulu (UTC)  20-Jul-2018 14:01:37
Local (UTC-5)  20-Jul-2018 09:01:37
 
METAR
KKY8 
26nm NW 
201355Z AUTO 21009KT 10SM 28/26 A2989 RMK A01
KFTK 
30nm NE 
201356Z AUTO 20013G19KT 10SM SCT021 BKN039 27/22 A2993 RMK AO2 SLP131 T02650217
KEKX 
31nm E 
201355Z AUTO 21010G15KT 10SM BKN020 BKN043 26/22 A2994 RMK AO2 T02610218
KOWB 
32nm W 
201356Z 23012KT 10SM FEW038 28/24 A2989 RMK AO2 SLP124 T02780244
KM21 
39nm SW 
201355Z AUTO 21011G20KT 10SM SCT016 SCT026 27/23 A2991 RMK AO2 T02670233
KBWG 
39nm S 
201353Z AUTO 20012KT 10SM OVC019 27/22 A2995 RMK AO2 SLP134 T02720217
KGLW 
44nm SE 
201330Z AUTO 21009G16KT 10SM CLR 27/20 A2997 RMK AO2 T02650204
KHNB 
44nm NW 
201356Z AUTO 20010KT 10SM FEW013 SCT037 27/24 A2988 RMK AO2 SLP112 T02670239
K2I0 
45nm W 
201355Z AUTO 23009KT 10SM SCT017 SCT033 28/24 A2991 RMK AO2 T02790241
KI19 
46nm NW 
201355Z AUTO 22005KT 10SM -RA BKN040 BKN048 OVC050 21/20 A2994 RMK AO2 LTG DSNT E THRU S P0006 T02050195
TAF
KFTK 
30nm NE 
201110Z 2011/2115 15009KT 9999 SCT050 BKN230 QNH2985INS BECMG 2015/2016 20012G20KT 9999 SCT030 QNH2979INS TEMPO 2023/2103 22030G45KT 1600 TSRAGR SCT015 BKN030CB OVC060 BECMG 2101/2103 21009KT 9999 FEW020 SCT030 QNH2980INS BECMG 2108/2109 22009KT 9999 BKN015 QNH2982INS TX31/2020Z TN19/2108Z
KOWB 
32nm W 
201139Z 2012/2112 18006KT P6SM SCT035 FM201500 21012G19KT P6SM SCT030 FM201900 23013G20KT P6SM VCTS SCT040CB PROB30 2021/2024 4SM TSRA BKN025CB FM210100 25005KT P6SM FEW050
NOTAMs
Click for the latest NOTAMs
NOTAMs are issued by the DoD/FAA and will open in a separate window not controlled by AirNav.

 

 
 

Would you like to see your business listed on this page?

 If your business provides an interesting product or service to pilots, flight crews, aircraft, or users of the Rough River State Park Airport, you should consider listing it here.  To start the listing process, click on the button below
 
Add a business
 

Other Pages about Rough River State Park Airport

Update a link
 
Copyright © AirNav, LLC. All rights reserved. Privacy Policy  Contact